Gerrit Braren — DGYW2 — position and weather

sailwx.info

Track history (hours):
 
Tides and Currents Weather Stations Pressure Air Temp Water Temp Dewpoint Dewpoint Depression Visibility Wind Speed Wind Dir Waves Ship Positions

Gerrit Braren

Last reported at 2018-Feb-12 04:57 UTC. Time now 2018-Feb-19 14:22 UTC.
Position N 28°07' W 013°50'.

Length 182 m; draft 9.9 m.

Type: Ship. MMSI: 218823000.

Date/timePositionNaut miles runAvg speedWind from/ knotsBaromVisibWave heightAir tempDewpointWater temp
2018-Feb-12 04:57N 28°07' W 013°50'3716.0
2018-Feb-12 02:38N 28°40' W 013°31'215.9
2018-Feb-12 02:29N 28°42' W 013°30'815.7
2018-Feb-12 01:59N 28°49' W 013°26'815.3
2018-Feb-12 01:27N 28°56' W 013°21'715.1
2018-Feb-12 00:59N 29°02' W 013°18'7215.0
2018-Feb-11 20:09N 30°06' W 012°37'614.9
2018-Feb-11 19:45N 30°11' W 012°34'49315.2
2018-Feb-10 11:15N 35°57' W 005°35'414.2
2018-Feb-10 11:00N 35°59' W 005°31'713.7
2018-Feb-10 10:30N 36°01' W 005°23'713.2
2018-Feb-10 10:00N 36°08' W 005°24'1 1.1
2018-Feb-10 09:29N 36°08' W 005°24'0 0.1
2018-Feb-10 08:59N 36°08' W 005°24'0 0.1
2018-Feb-10 08:29N 36°08' W 005°25'0 0.0
2018-Feb-10 07:59N 36°08' W 005°25'0 0.1
2018-Feb-10 07:26N 36°08' W 005°25'0 0.0
2018-Feb-10 06:59N 36°08' W 005°25'0 0.2
2018-Feb-10 06:29N 36°08' W 005°24'0 0.1
2018-Feb-10 05:56N 36°08' W 005°24'0 0.1
2018-Feb-10 05:29N 36°08' W 005°24'0 0.0
2018-Feb-10 04:59N 36°08' W 005°24'0 0.1
2018-Feb-10 04:29N 36°08' W 005°24'0 0.2
2018-Feb-10 03:59N 36°08' W 005°24'1 2.1
2018-Feb-10 03:30N 36°09' W 005°25'1 1.5
2018-Feb-10 03:00N 36°08' W 005°26'0 0.0
2018-Feb-10 02:30N 36°08' W 005°26'0 0.0
2018-Feb-10 02:00N 36°08' W 005°26'0 0.0
2018-Feb-10 01:30N 36°08' W 005°26'0 0.0
2018-Feb-10 01:00N 36°08' W 005°26'0 0.0
2018-Feb-10 00:30N 36°08' W 005°26'0 0.0
2018-Feb-09 23:57N 36°08' W 005°26'0 0.0
2018-Feb-09 23:27N 36°08' W 005°26'0 0.0
2018-Feb-09 23:00N 36°08' W 005°26'0 0.0
2018-Feb-09 22:45N 36°08' W 005°26'1 0.4
2018-Feb-09 20:31N 36°09' W 005°26'6 5.6
2018-Feb-09 19:31N 36°06' W 005°20'7 0.5
2018-Feb-09 04:31N 35°59' W 005°23'4 7.9
2018-Feb-09 04:00N 35°57' W 005°27'  
2018-Feb-06 13:51N 29°09' W 013°13'410.9
2018-Feb-06 13:30N 29°06' W 013°16'510.6
2018-Feb-06 13:00N 29°01' W 013°19'510.7
2018-Feb-06 12:30N 28°57' W 013°22'611.0
2018-Feb-06 12:00N 28°52' W 013°24'611.1
2018-Feb-06 11:25N 28°46' W 013°28'511.5
2018-Feb-06 10:57N 28°41' W 013°30'511.4
2018-Feb-06 10:29N 28°36' W 013°33'611.4
2018-Feb-06 09:59N 28°31' W 013°36'  
2018-Feb-02 11:48N 09°53' W 016°49'4113.2
2018-Feb-02 08:42N 09°26' W 016°18'413.3
2018-Feb-02 08:24N 09°23' W 016°15'513.4
2018-Feb-02 08:00N 09°20' W 016°11'713.3
2018-Feb-02 07:30N 09°15' W 016°06'713.4
2018-Feb-02 07:00N 09°11' W 016°01'713.4
2018-Feb-02 06:28N 09°06' W 015°55'613.3
2018-Feb-02 05:59N 09°02' W 015°51'613.3
2018-Feb-02 05:30N 08°58' W 015°46'713.5
2018-Feb-02 05:00N 08°53' W 015°41'  
Track history (hours):
 
Tides and Currents Weather Stations Pressure Air Temp Water Temp Dewpoint Dewpoint Depression Visibility Wind Speed Wind Dir Waves Ship Positions

Gerrit Braren

Last reported at 2018-Feb-12 04:57 UTC. Time now 2018-Feb-19 14:22 UTC.
Position N 28°07' W 013°50'.

Length 182 m; draft 9.9 m.

Type: Ship. MMSI: 218823000.

Date/timePositionNaut miles runAvg speedWind from/ knotsBaromVisibWave heightAir tempDewpointWater temp
2018-Feb-12 04:57N 28°07' W 013°50'3716.0
2018-Feb-12 02:38N 28°40' W 013°31'215.9
2018-Feb-12 02:29N 28°42' W 013°30'815.7
2018-Feb-12 01:59N 28°49' W 013°26'815.3
2018-Feb-12 01:27N 28°56' W 013°21'715.1
2018-Feb-12 00:59N 29°02' W 013°18'7215.0
2018-Feb-11 20:09N 30°06' W 012°37'614.9
2018-Feb-11 19:45N 30°11' W 012°34'49315.2
2018-Feb-10 11:15N 35°57' W 005°35'414.2
2018-Feb-10 11:00N 35°59' W 005°31'713.7
2018-Feb-10 10:30N 36°01' W 005°23'713.2
2018-Feb-10 10:00N 36°08' W 005°24'1 1.1
2018-Feb-10 09:29N 36°08' W 005°24'0 0.1
2018-Feb-10 08:59N 36°08' W 005°24'0 0.1
2018-Feb-10 08:29N 36°08' W 005°25'0 0.0
2018-Feb-10 07:59N 36°08' W 005°25'0 0.1
2018-Feb-10 07:26N 36°08' W 005°25'0 0.0
2018-Feb-10 06:59N 36°08' W 005°25'0 0.2
2018-Feb-10 06:29N 36°08' W 005°24'0 0.1
2018-Feb-10 05:56N 36°08' W 005°24'0 0.1
2018-Feb-10 05:29N 36°08' W 005°24'0 0.0
2018-Feb-10 04:59N 36°08' W 005°24'0 0.1
2018-Feb-10 04:29N 36°08' W 005°24'0 0.2
2018-Feb-10 03:59N 36°08' W 005°24'1 2.1
2018-Feb-10 03:30N 36°09' W 005°25'1 1.5
2018-Feb-10 03:00N 36°08' W 005°26'0 0.0
2018-Feb-10 02:30N 36°08' W 005°26'0 0.0
2018-Feb-10 02:00N 36°08' W 005°26'0 0.0
2018-Feb-10 01:30N 36°08' W 005°26'0 0.0
2018-Feb-10 01:00N 36°08' W 005°26'0 0.0
2018-Feb-10 00:30N 36°08' W 005°26'0 0.0
2018-Feb-09 23:57N 36°08' W 005°26'0 0.0
2018-Feb-09 23:27N 36°08' W 005°26'0 0.0
2018-Feb-09 23:00N 36°08' W 005°26'0 0.0
2018-Feb-09 22:45N 36°08' W 005°26'1 0.4
2018-Feb-09 20:31N 36°09' W 005°26'6 5.6
2018-Feb-09 19:31N 36°06' W 005°20'7 0.5
2018-Feb-09 04:31N 35°59' W 005°23'4 7.9
2018-Feb-09 04:00N 35°57' W 005°27'  
2018-Feb-06 13:51N 29°09' W 013°13'410.9
2018-Feb-06 13:30N 29°06' W 013°16'510.6
2018-Feb-06 13:00N 29°01' W 013°19'510.7
2018-Feb-06 12:30N 28°57' W 013°22'611.0
2018-Feb-06 12:00N 28°52' W 013°24'611.1
2018-Feb-06 11:25N 28°46' W 013°28'511.5
2018-Feb-06 10:57N 28°41' W 013°30'511.4
2018-Feb-06 10:29N 28°36' W 013°33'611.4
2018-Feb-06 09:59N 28°31' W 013°36'  
2018-Feb-02 11:48N 09°53' W 016°49'4113.2
2018-Feb-02 08:42N 09°26' W 016°18'413.3
2018-Feb-02 08:24N 09°23' W 016°15'513.4
2018-Feb-02 08:00N 09°20' W 016°11'713.3
2018-Feb-02 07:30N 09°15' W 016°06'713.4
2018-Feb-02 07:00N 09°11' W 016°01'713.4
2018-Feb-02 06:28N 09°06' W 015°55'613.3
2018-Feb-02 05:59N 09°02' W 015°51'613.3
2018-Feb-02 05:30N 08°58' W 015°46'713.5
2018-Feb-02 05:00N 08°53' W 015°41'  

Dump ship's entire track history